sensor_id;sensor_type;location;lat;lon;timestamp;pressure;altitude;pressure_sealevel;temperature;humidity
12963;BME280;6546;49.882;8.666;2023-04-01T00:02:26;98409.78;;;10.89;68.78
12963;BME280;6546;49.882;8.666;2023-04-01T00:04:53;98411.22;;;10.85;68.77
12963;BME280;6546;49.882;8.666;2023-04-01T00:07:23;98406.44;;;10.88;68.54
12963;BME280;6546;49.882;8.666;2023-04-01T00:09:50;98411.41;;;10.83;69.27
12963;BME280;6546;49.882;8.666;2023-04-01T00:12:16;98416.41;;;10.85;68.51
12963;BME280;6546;49.882;8.666;2023-04-01T00:14:47;98402.44;;;10.86;68.31
12963;BME280;6546;49.882;8.666;2023-04-01T00:17:14;98406.63;;;10.87;68.58
12963;BME280;6546;49.882;8.666;2023-04-01T00:19:42;98411.00;;;10.86;68.77
12963;BME280;6546;49.882;8.666;2023-04-01T00:22:09;98409.44;;;10.85;68.73
12963;BME280;6546;49.882;8.666;2023-04-01T00:24:37;98407.03;;;10.84;68.43
12963;BME280;6546;49.882;8.666;2023-04-01T00:27:06;98409.84;;;10.82;67.94
12963;BME280;6546;49.882;8.666;2023-04-01T00:29:34;98412.63;;;10.81;69.35
12963;BME280;6546;49.882;8.666;2023-04-01T00:32:01;98410.63;;;10.83;68.47
12963;BME280;6546;49.882;8.666;2023-04-01T00:34:27;98405.25;;;10.84;68.80
12963;BME280;6546;49.882;8.666;2023-04-01T00:36:55;98407.03;;;10.84;67.79
12963;BME280;6546;49.882;8.666;2023-04-01T00:39:22;98403.88;;;10.82;67.79
12963;BME280;6546;49.882;8.666;2023-04-01T00:41:48;98399.88;;;10.79;68.72
12963;BME280;6546;49.882;8.666;2023-04-01T00:44:17;98405.66;;;10.81;68.01
12963;BME280;6546;49.882;8.666;2023-04-01T00:46:45;98401.06;;;10.83;69.01
12963;BME280;6546;49.882;8.666;2023-04-01T00:49:13;98405.44;;;10.83;68.27
12963;BME280;6546;49.882;8.666;2023-04-01T00:51:41;98396.69;;;10.84;67.95
12963;BME280;6546;49.882;8.666;2023-04-01T00:54:10;98401.28;;;10.82;68.50
12963;BME280;6546;49.882;8.666;2023-04-01T00:56:40;98397.88;;;10.88;68.03
12963;BME280;6546;49.882;8.666;2023-04-01T00:59:11;98396.28;;;10.87;67.69
12963;BME280;6546;49.882;8.666;2023-04-01T01:01:40;98387.94;;;10.78;68.18
12963;BME280;6546;49.882;8.666;2023-04-01T01:04:22;98388.13;;;10.83;67.88
12963;BME280;6546;49.882;8.666;2023-04-01T01:06:54;98396.69;;;10.84;67.82
12963;BME280;6546;49.882;8.666;2023-04-01T01:09:31;98391.50;;;10.84;74.55
12963;BME280;6546;49.882;8.666;2023-04-01T01:12:06;98402.63;;;10.97;69.37
12963;BME280;6546;49.882;8.666;2023-04-01T01:14:42;98397.44;;;10.97;67.78
12963;BME280;6546;49.882;8.666;2023-04-01T01:17:15;98394.63;;;10.99;66.18
12963;BME280;6546;49.882;8.666;2023-04-01T01:19:54;98403.81;;;10.95;66.57
12963;BME280;6546;49.882;8.666;2023-04-01T01:22:39;98411.59;;;10.95;66.82
12963;BME280;6546;49.882;8.666;2023-04-01T01:25:30;98399.25;;;10.90;67.02
12963;BME280;6546;49.882;8.666;2023-04-01T01:28:13;98393.09;;;10.85;66.91
12963;BME280;6546;49.882;8.666;2023-04-01T01:30:51;98398.25;;;10.91;66.90
12963;BME280;6546;49.882;8.666;2023-04-01T01:33:49;98398.25;;;10.91;66.55
12963;BME280;6546;49.882;8.666;2023-04-01T01:36:22;98403.84;;;10.88;66.66
12963;BME280;6546;49.882;8.666;2023-04-01T01:38:54;98396.28;;;10.87;67.33
12963;BME280;6546;49.882;8.666;2023-04-01T01:41:22;98390.50;;;10.85;67.00
12963;BME280;6546;49.882;8.666;2023-04-01T01:43:51;98380.75;;;10.87;66.81
12963;BME280;6546;49.882;8.666;2023-04-01T01:46:23;98392.69;;;10.88;66.26
12963;BME280;6546;49.882;8.666;2023-04-01T01:48:53;98391.47;;;10.90;67.12
12963;BME280;6546;49.882;8.666;2023-04-01T01:51:22;98390.28;;;10.86;66.78
12963;BME280;6546;49.882;8.666;2023-04-01T01:53:49;98394.47;;;10.87;67.46
12963;BME280;6546;49.882;8.666;2023-04-01T01:56:18;98399.09;;;10.85;67.12
12963;BME280;6546;49.882;8.666;2023-04-01T01:58:50;98397.47;;;10.91;66.99
12963;BME280;6546;49.882;8.666;2023-04-01T02:01:21;98387.94;;;10.85;66.80
12963;BME280;6546;49.882;8.666;2023-04-01T02:03:50;98398.66;;;10.88;67.33
12963;BME280;6546;49.882;8.666;2023-04-01T02:06:19;98392.47;;;10.89;67.18
12963;BME280;6546;49.882;8.666;2023-04-01T02:08:51;98394.06;;;10.90;67.07
12963;BME280;6546;49.882;8.666;2023-04-01T02:11:30;98391.06;;;10.93;66.08
12963;BME280;6546;49.882;8.666;2023-04-01T02:14:01;98391.66;;;10.89;67.58
12963;BME280;6546;49.882;8.666;2023-04-01T02:16:33;98386.72;;;10.87;67.44
12963;BME280;6546;49.882;8.666;2023-04-01T02:19:03;98399.44;;;10.89;67.38
12963;BME280;6546;49.882;8.666;2023-04-01T02:21:33;98398.88;;;10.87;67.46
12963;BME280;6546;49.882;8.666;2023-04-01T02:24:05;98401.03;;;10.90;67.75
12963;BME280;6546;49.882;8.666;2023-04-01T02:26:37;98392.69;;;10.88;68.07
12963;BME280;6546;49.882;8.666;2023-04-01T02:29:05;98389.91;;;10.83;67.75
12963;BME280;6546;49.882;8.666;2023-04-01T02:31:34;98396.69;;;10.84;68.22
12963;BME280;6546;49.882;8.666;2023-04-01T02:34:02;98397.88;;;10.88;67.75
12963;BME280;6546;49.882;8.666;2023-04-01T02:36:29;98385.91;;;10.87;67.82
12963;BME280;6546;49.882;8.666;2023-04-01T02:38:57;98379.13;;;10.86;67.64
12963;BME280;6546;49.882;8.666;2023-04-01T02:41:29;98371.81;;;10.76;68.06
12963;BME280;6546;49.882;8.666;2023-04-01T02:43:55;98381.97;;;10.78;68.50
12963;BME280;6546;49.882;8.666;2023-04-01T02:46:23;98378.00;;;10.75;69.16
12963;BME280;6546;49.882;8.666;2023-04-01T02:48:50;98372.63;;;10.70;68.88
12963;BME280;6546;49.882;8.666;2023-04-01T02:51:16;98364.84;;;10.77;68.79
12963;BME280;6546;49.882;8.666;2023-04-01T02:53:43;98375.03;;;10.72;68.70
12963;BME280;6546;49.882;8.666;2023-04-01T02:56:10;98361.69;;;10.75;68.43
12963;BME280;6546;49.882;8.666;2023-04-01T02:58:37;98355.31;;;10.71;68.67
12963;BME280;6546;49.882;8.666;2023-04-01T03:01:04;98363.06;;;10.71;68.64
12963;BME280;6546;49.882;8.666;2023-04-01T03:03:31;98355.13;;;10.66;68.66
12963;BME280;6546;49.882;8.666;2023-04-01T03:05:57;98361.88;;;10.67;69.08
12963;BME280;6546;49.882;8.666;2023-04-01T03:08:25;98362.91;;;10.66;68.37
12963;BME280;6546;49.882;8.666;2023-04-01T03:10:52;98367.84;;;10.67;69.17
12963;BME280;6546;49.882;8.666;2023-04-01T03:13:18;98366.66;;;10.63;69.16
12963;BME280;6546;49.882;8.666;2023-04-01T03:15:46;98363.91;;;10.65;68.78
12963;BME280;6546;49.882;8.666;2023-04-01T03:18:13;98361.31;;;10.65;68.39
12963;BME280;6546;49.882;8.666;2023-04-01T03:20:40;98369.06;;;10.65;68.57
12963;BME280;6546;49.882;8.666;2023-04-01T03:23:07;98367.28;;;10.65;68.90
12963;BME280;6546;49.882;8.666;2023-04-01T03:25:34;98368.50;;;10.56;69.19
12963;BME280;6546;49.882;8.666;2023-04-01T03:28:00;98377.44;;;10.60;69.41
12963;BME280;6546;49.882;8.666;2023-04-01T03:30:27;98375.06;;;10.59;69.23
12963;BME280;6546;49.882;8.666;2023-04-01T03:32:57;98367.69;;;10.62;68.84
12963;BME280;6546;49.882;8.666;2023-04-01T03:35:24;98373.06;;;10.61;68.85
12963;BME280;6546;49.882;8.666;2023-04-01T03:37:53;98363.31;;;10.63;69.34
12963;BME280;6546;49.882;8.666;2023-04-01T03:40:22;98370.06;;;10.64;69.38
12963;BME280;6546;49.882;8.666;2023-04-01T03:42:49;98370.47;;;10.61;69.25
12963;BME280;6546;49.882;8.666;2023-04-01T03:45:16;98365.28;;;10.61;69.41
12963;BME280;6546;49.882;8.666;2023-04-01T03:47:45;98368.91;;;10.60;69.47
12963;BME280;6546;49.882;8.666;2023-04-01T03:50:13;98367.31;;;10.59;69.53
12963;BME280;6546;49.882;8.666;2023-04-01T03:52:40;98365.69;;;10.58;69.77
12963;BME280;6546;49.882;8.666;2023-04-01T03:55:07;98370.88;;;10.58;69.63
12963;BME280;6546;49.882;8.666;2023-04-01T03:57:34;98372.88;;;10.56;69.49
12963;BME280;6546;49.882;8.666;2023-04-01T04:00:00;98377.66;;;10.52;69.82
12963;BME280;6546;49.882;8.666;2023-04-01T04:02:27;98373.69;;;10.49;69.87
12963;BME280;6546;49.882;8.666;2023-04-01T04:04:54;98372.88;;;10.56;69.79
12963;BME280;6546;49.882;8.666;2023-04-01T04:07:22;98376.47;;;10.54;69.97
12963;BME280;6546;49.882;8.666;2023-04-01T04:09:48;98368.91;;;10.53;69.87
12963;BME280;6546;49.882;8.666;2023-04-01T04:12:15;98357.78;;;10.52;69.80
12963;BME280;6546;49.882;8.666;2023-04-01T04:14:42;98370.06;;;10.57;69.75
12963;BME280;6546;49.882;8.666;2023-04-01T04:17:10;98366.09;;;10.54;69.72
12963;BME280;6546;49.882;8.666;2023-04-01T04:19:41;98371.09;;;10.56;69.66
12963;BME280;6546;49.882;8.666;2023-04-01T04:22:08;98371.69;;;10.51;69.87
12963;BME280;6546;49.882;8.666;2023-04-01T04:24:36;98368.13;;;10.52;69.94
12963;BME280;6546;49.882;8.666;2023-04-01T04:27:04;98366.31;;;10.53;70.08
12963;BME280;6546;49.882;8.666;2023-04-01T04:29:30;98367.91;;;10.54;69.15
12963;BME280;6546;49.882;8.666;2023-04-01T04:31:57;98364.72;;;10.59;68.97
12963;BME280;6546;49.882;8.666;2023-04-01T04:34:24;98368.69;;;10.61;68.93
12963;BME280;6546;49.882;8.666;2023-04-01T04:36:50;98369.28;;;10.57;68.80
12963;BME280;6546;49.882;8.666;2023-04-01T04:39:17;98359.13;;;10.62;68.68
12963;BME280;6546;49.882;8.666;2023-04-01T04:41:45;98366.31;;;10.60;68.59
12963;BME280;6546;49.882;8.666;2023-04-01T04:44:14;98362.91;;;10.66;68.25
12963;BME280;6546;49.882;8.666;2023-04-01T04:46:41;98370.47;;;10.61;67.71
12963;BME280;6546;49.882;8.666;2023-04-01T04:49:07;98373.06;;;10.61;68.21
12963;BME280;6546;49.882;8.666;2023-04-01T04:51:34;98363.91;;;10.65;68.21
12963;BME280;6546;49.882;8.666;2023-04-01T04:54:01;98366.88;;;10.62;68.01
12963;BME280;6546;49.882;8.666;2023-04-01T04:56:28;98355.56;;;10.63;68.45
12963;BME280;6546;49.882;8.666;2023-04-01T04:58:57;98366.31;;;10.60;68.67
12963;BME280;6546;49.882;8.666;2023-04-01T05:01:24;98369.88;;;10.65;68.25
12963;BME280;6546;49.882;8.666;2023-04-01T05:03:51;98362.69;;;10.67;67.48
12963;BME280;6546;49.882;8.666;2023-04-01T05:06:19;98373.66;;;10.63;68.38
12963;BME280;6546;49.882;8.666;2023-04-01T05:08:46;98372.06;;;10.62;68.63
12963;BME280;6546;49.882;8.666;2023-04-01T05:11:15;98366.47;;;10.65;68.78
12963;BME280;6546;49.882;8.666;2023-04-01T05:13:42;98363.31;;;10.63;68.71
12963;BME280;6546;49.882;8.666;2023-04-01T05:16:12;98370.28;;;10.62;68.59
12963;BME280;6546;49.882;8.666;2023-04-01T05:18:39;98364.88;;;10.64;68.66
12963;BME280;6546;49.882;8.666;2023-04-01T05:21:07;98373.25;;;10.66;68.51
12963;BME280;6546;49.882;8.666;2023-04-01T05:23:34;98364.28;;;10.68;68.72
12963;BME280;6546;49.882;8.666;2023-04-01T05:26:03;98363.88;;;10.71;68.51
12963;BME280;6546;49.882;8.666;2023-04-01T05:28:30;98363.28;;;10.69;68.84
12963;BME280;6546;49.882;8.666;2023-04-01T05:30:58;98368.25;;;10.71;68.41
12963;BME280;6546;49.882;8.666;2023-04-01T05:33:27;98368.66;;;10.68;69.01
12963;BME280;6546;49.882;8.666;2023-04-01T05:35:54;98364.69;;;10.72;68.98
12963;BME280;6546;49.882;8.666;2023-04-01T05:38:21;98362.09;;;10.72;69.06
12963;BME280;6546;49.882;8.666;2023-04-01T05:40:48;98350.53;;;10.68;68.95
12963;BME280;6546;49.882;8.666;2023-04-01T05:43:14;98362.50;;;10.62;69.05
12963;BME280;6546;49.882;8.666;2023-04-01T05:45:41;98352.56;;;10.66;68.87
12963;BME280;6546;49.882;8.666;2023-04-01T05:48:08;98355.13;;;10.66;68.99
12963;BME280;6546;49.882;8.666;2023-04-01T05:50:41;98350.94;;;10.65;68.95
12963;BME280;6546;49.882;8.666;2023-04-01T05:53:09;98346.75;;;10.64;68.42
12963;BME280;6546;49.882;8.666;2023-04-01T05:55:36;98355.56;;;10.63;68.94
12963;BME280;6546;49.882;8.666;2023-04-01T05:58:02;98354.91;;;10.67;68.89
12963;BME280;6546;49.882;8.666;2023-04-01T06:00:29;98360.31;;;10.66;68.96
12963;BME280;6546;49.882;8.666;2023-04-01T06:02:58;98354.13;;;10.67;68.94
12963;BME280;6546;49.882;8.666;2023-04-01T06:05:27;98348.56;;;10.63;69.20
12963;BME280;6546;49.882;8.666;2023-04-01T06:07:59;98356.72;;;10.67;69.01
12963;BME280;6546;49.882;8.666;2023-04-01T06:10:37;98365.91;;;10.63;68.84
12963;BME280;6546;49.882;8.666;2023-04-01T06:13:08;98343.19;;;10.65;68.48
12963;BME280;6546;49.882;8.666;2023-04-01T06:15:42;98360.91;;;10.61;69.03
12963;BME280;6546;49.882;8.666;2023-04-01T06:18:39;98344.97;;;10.64;69.35
12963;BME280;6546;49.882;8.666;2023-04-01T06:21:23;98352.56;;;10.66;69.15
12963;BME280;6546;49.882;8.666;2023-04-01T06:24:07;98353.72;;;10.63;68.79
12963;BME280;6546;49.882;8.666;2023-04-01T06:26:44;98355.34;;;10.58;69.26
12963;BME280;6546;49.882;8.666;2023-04-01T06:32:33;98361.72;;;10.62;69.12
12963;BME280;6546;49.882;8.666;2023-04-01T06:35:19;98360.91;;;10.61;69.56
12963;BME280;6546;49.882;8.666;2023-04-01T06:38:08;98358.53;;;10.66;69.06
12963;BME280;6546;49.882;8.666;2023-04-01T06:40:51;98350.53;;;10.68;69.41
12963;BME280;6546;49.882;8.666;2023-04-01T06:43:28;98363.69;;;10.66;69.06
12963;BME280;6546;49.882;8.666;2023-04-01T06:46:07;98347.34;;;10.72;68.57
12963;BME280;6546;49.882;8.666;2023-04-01T06:48:47;98373.25;;;10.66;69.06
12963;BME280;6546;49.882;8.666;2023-04-01T06:51:25;98354.50;;;10.70;69.51
12963;BME280;6546;49.882;8.666;2023-04-01T06:54:02;98343.97;;;10.72;69.87
12963;BME280;6546;49.882;8.666;2023-04-01T06:56:32;98358.31;;;10.61;70.19
12963;BME280;6546;49.882;8.666;2023-04-01T06:59:03;98358.13;;;10.63;70.85
12963;BME280;6546;49.882;8.666;2023-04-01T07:01:34;98357.34;;;10.56;71.22
12963;BME280;6546;49.882;8.666;2023-04-01T07:04:06;98360.91;;;10.61;71.38
12963;BME280;6546;49.882;8.666;2023-04-01T07:06:39;98368.28;;;10.58;71.11
12963;BME280;6546;49.882;8.666;2023-04-01T07:09:12;98363.50;;;10.61;71.53
12963;BME280;6546;49.882;8.666;2023-04-01T07:11:42;98370.88;;;10.58;71.51
12963;BME280;6546;49.882;8.666;2023-04-01T07:14:13;98367.31;;;10.59;71.74
12963;BME280;6546;49.882;8.666;2023-04-01T07:16:45;98365.13;;;10.56;71.72
12963;BME280;6546;49.882;8.666;2023-04-01T07:19:18;98372.47;;;10.59;71.69
12963;BME280;6546;49.882;8.666;2023-04-01T07:21:49;98364.31;;;10.62;71.06
12963;BME280;6546;49.882;8.666;2023-04-01T07:24:22;98368.09;;;10.59;71.27
12963;BME280;6546;49.882;8.666;2023-04-01T07:26:54;98360.53;;;10.58;71.20
12963;BME280;6546;49.882;8.666;2023-04-01T07:29:21;98365.28;;;10.61;71.97
12963;BME280;6546;49.882;8.666;2023-04-01T07:32:09;98356.53;;;10.68;71.29
12963;BME280;6546;49.882;8.666;2023-04-01T07:34:44;98370.03;;;10.70;71.09
12963;BME280;6546;49.882;8.666;2023-04-01T07:37:15;98365.66;;;10.71;70.98
12963;BME280;6546;49.882;8.666;2023-04-01T07:39:53;98375.81;;;10.79;71.05
12963;BME280;6546;49.882;8.666;2023-04-01T07:42:30;98376.19;;;10.82;71.08
12963;BME280;6546;49.882;8.666;2023-04-01T07:45:07;98373.78;;;10.87;70.60
12963;BME280;6546;49.882;8.666;2023-04-01T07:47:47;98378.72;;;10.89;71.23
12963;BME280;6546;49.882;8.666;2023-04-01T07:50:22;98380.31;;;10.90;71.29
12963;BME280;6546;49.882;8.666;2023-04-01T07:52:58;98373.34;;;10.90;72.01
12963;BME280;6546;49.882;8.666;2023-04-01T07:55:31;98373.72;;;11.00;71.43
12963;BME280;6546;49.882;8.666;2023-04-01T07:58:09;98375.91;;;10.97;71.12
12963;BME280;6546;49.882;8.666;2023-04-01T08:00:44;98375.91;;;11.03;71.47
12963;BME280;6546;49.882;8.666;2023-04-01T08:03:33;98368.69;;;11.05;70.45
12963;BME280;6546;49.882;8.666;2023-04-01T08:06:07;98378.47;;;11.03;70.54
12963;BME280;6546;49.882;8.666;2023-04-01T08:08:48;98382.44;;;11.06;70.23
12963;BME280;6546;49.882;8.666;2023-04-01T08:11:27;98379.28;;;11.04;70.33
12963;BME280;6546;49.882;8.666;2023-04-01T08:14:04;98391.06;;;10.93;70.89
12963;BME280;6546;49.882;8.666;2023-04-01T08:16:39;98387.88;;;10.98;71.28
12963;BME280;6546;49.882;8.666;2023-04-01T08:19:18;98387.66;;;10.99;71.37
12963;BME280;6546;49.882;8.666;2023-04-01T08:21:48;98384.88;;;11.01;70.88
12963;BME280;6546;49.882;8.666;2023-04-01T08:24:21;98382.69;;;10.98;70.75
12963;BME280;6546;49.882;8.666;2023-04-01T08:26:53;98386.84;;;10.99;70.73
12963;BME280;6546;49.882;8.666;2023-04-01T08:29:26;98401.63;;;10.98;71.20
12963;BME280;6546;49.882;8.666;2023-04-01T08:32:00;98389.22;;;11.07;71.49
12963;BME280;6546;49.882;8.666;2023-04-01T08:34:35;98399.16;;;11.10;71.67
12963;BME280;6546;49.882;8.666;2023-04-01T08:37:07;98400.56;;;11.06;72.33
12963;BME280;6546;49.882;8.666;2023-04-01T08:39:37;98409.75;;;11.02;72.97
12963;BME280;6546;49.882;8.666;2023-04-01T08:42:21;98415.75;;;10.96;73.48
12963;BME280;6546;49.882;8.666;2023-04-01T08:45:10;98418.16;;;10.97;73.83
12963;BME280;6546;49.882;8.666;2023-04-01T08:51:12;98412.03;;;10.85;75.53
12963;BME280;6546;49.882;8.666;2023-04-01T08:54:04;98420.16;;;10.89;76.21
12963;BME280;6546;49.882;8.666;2023-04-01T08:56:40;98416.97;;;10.87;76.36
12963;BME280;6546;49.882;8.666;2023-04-01T08:59:31;98408.63;;;10.85;76.32
12963;BME280;6546;49.882;8.666;2023-04-01T09:02:22;98416.19;;;10.86;76.31
12963;BME280;6546;49.882;8.666;2023-04-01T09:05:22;98409.78;;;10.89;76.47
12963;BME280;6546;49.882;8.666;2023-04-01T09:07:57;98419.16;;;10.90;76.86
12963;BME280;6546;49.882;8.666;2023-04-01T09:10:42;98421.75;;;10.90;76.93
12963;BME280;6546;49.882;8.666;2023-04-01T09:13:33;98420.34;;;10.94;77.24
12963;BME280;6546;49.882;8.666;2023-04-01T09:16:13;98412.75;;;10.99;76.67
12963;BME280;6546;49.882;8.666;2023-04-01T09:19:12;98420.75;;;10.97;76.95
12963;BME280;6546;49.882;8.666;2023-04-01T09:22:08;98429.31;;;10.98;77.31
12963;BME280;6546;49.882;8.666;2023-04-01T09:25:05;98426.72;;;10.98;77.25
12963;BME280;6546;49.882;8.666;2023-04-01T09:27:44;98426.13;;;10.96;77.39
12963;BME280;6546;49.882;8.666;2023-04-01T09:30:32;98426.13;;;10.96;77.76
12963;BME280;6546;49.882;8.666;2023-04-01T09:33:22;98432.88;;;10.97;77.87
12963;BME280;6546;49.882;8.666;2023-04-01T09:36:05;98428.28;;;10.99;77.58
12963;BME280;6546;49.882;8.666;2023-04-01T09:38:42;98440.50;;;10.92;78.10
12963;BME280;6546;49.882;8.666;2023-04-01T09:41:23;98444.88;;;10.91;78.79
12963;BME280;6546;49.882;8.666;2023-04-01T09:44:01;98442.66;;;10.95;79.09
12963;BME280;6546;49.882;8.666;2023-04-01T09:46:37;98446.03;;;10.95;79.50
12963;BME280;6546;49.882;8.666;2023-04-01T09:49:30;98450.19;;;11.03;79.58
12963;BME280;6546;49.882;8.666;2023-04-01T09:52:16;98448.56;;;11.08;79.58
12963;BME280;6546;49.882;8.666;2023-04-01T09:54:56;98447.59;;;11.10;79.28
12963;BME280;6546;49.882;8.666;2023-04-01T09:57:56;98459.56;;;11.04;79.48
12963;BME280;6546;49.882;8.666;2023-04-01T10:13:44;98464.31;;;11.14;79.87
12963;BME280;6546;49.882;8.666;2023-04-01T10:16:30;98461.50;;;11.15;80.26
12963;BME280;6546;49.882;8.666;2023-04-01T10:19:35;98454.75;;;11.14;80.04
12963;BME280;6546;49.882;8.666;2023-04-01T10:28:16;98462.53;;;11.14;80.83
12963;BME280;6546;49.882;8.666;2023-04-01T10:31:14;98464.69;;;11.17;80.82
12963;BME280;6546;49.882;8.666;2023-04-01T10:34:00;98467.28;;;11.24;81.05
12963;BME280;6546;49.882;8.666;2023-04-01T10:36:46;98459.88;;;11.27;80.92
12963;BME280;6546;49.882;8.666;2023-04-01T10:51:40;98457.88;;;11.29;80.35
12963;BME280;6546;49.882;8.666;2023-04-01T10:54:40;98461.47;;;11.28;80.76
12963;BME280;6546;49.882;8.666;2023-04-01T10:57:24;98455.84;;;11.31;80.69
12963;BME280;6546;49.882;8.666;2023-04-01T11:00:25;98463.44;;;11.33;81.13
12963;BME280;6546;49.882;8.666;2023-04-01T11:06:34;98464.00;;;11.41;80.65
12963;BME280;6546;49.882;8.666;2023-04-01T11:15:27;98471.72;;;11.54;80.92
12963;BME280;6546;49.882;8.666;2023-04-01T11:18:20;98481.66;;;11.57;80.96
12963;BME280;6546;49.882;8.666;2023-04-01T11:21:14;98479.28;;;11.56;80.39
12963;BME280;6546;49.882;8.666;2023-04-01T11:23:50;98481.66;;;11.57;80.52
12963;BME280;6546;49.882;8.666;2023-04-01T11:26:28;98481.66;;;11.57;80.89
12963;BME280;6546;49.882;8.666;2023-04-01T11:29:19;98476.25;;;11.66;80.67
12963;BME280;6546;49.882;8.666;2023-04-01T11:31:57;98473.28;;;11.62;80.74
12963;BME280;6546;49.882;8.666;2023-04-01T11:34:37;98491.56;;;11.67;80.85
12963;BME280;6546;49.882;8.666;2023-04-01T11:37:17;98483.63;;;11.62;80.39
12963;BME280;6546;49.882;8.666;2023-04-01T11:39:54;98487.44;;;11.59;80.72
12963;BME280;6546;49.882;8.666;2023-04-01T11:42:32;98493.59;;;11.65;80.97
12963;BME280;6546;49.882;8.666;2023-04-01T11:45:12;98490.78;;;11.67;80.92
12963;BME280;6546;49.882;8.666;2023-04-01T11:47:55;98493.22;;;11.62;81.02
12963;BME280;6546;49.882;8.666;2023-04-01T11:50:34;98495.38;;;11.65;81.13
12963;BME280;6546;49.882;8.666;2023-04-01T11:53:13;98500.00;;;11.63;80.69
12963;BME280;6546;49.882;8.666;2023-04-01T11:55:59;98502.78;;;11.61;80.83
12963;BME280;6546;49.882;8.666;2023-04-01T11:58:46;98501.59;;;11.57;81.13
12963;BME280;6546;49.882;8.666;2023-04-01T12:01:27;98505.59;;;11.59;81.46
12963;BME280;6546;49.882;8.666;2023-04-01T12:07:16;98490.47;;;11.56;81.36
12963;BME280;6546;49.882;8.666;2023-04-01T12:09:50;98504.00;;;11.58;81.36
12963;BME280;6546;49.882;8.666;2023-04-01T12:12:28;98498.03;;;11.51;81.21
12963;BME280;6546;49.882;8.666;2023-04-01T12:15:05;98499.44;;;11.47;81.90
12963;BME280;6546;49.882;8.666;2023-04-01T12:17:44;98504.41;;;11.55;82.05
12963;BME280;6546;49.882;8.666;2023-04-01T12:20:28;98496.09;;;11.47;82.04
12963;BME280;6546;49.882;8.666;2023-04-01T12:23:09;98503.81;;;11.53;82.08
12963;BME280;6546;49.882;8.666;2023-04-01T12:26:11;98505.22;;;11.56;82.41
12963;BME280;6546;49.882;8.666;2023-04-01T12:28:52;98509.59;;;11.55;82.02
12963;BME280;6546;49.882;8.666;2023-04-01T12:31:30;98508.38;;;11.58;82.16
12963;BME280;6546;49.882;8.666;2023-04-01T12:34:44;98496.78;;;11.60;81.89
12963;BME280;6546;49.882;8.666;2023-04-01T12:37:21;98499.59;;;11.59;82.01
12963;BME280;6546;49.882;8.666;2023-04-01T12:43:13;98505.91;;;11.76;81.52
12963;BME280;6546;49.882;8.666;2023-04-01T12:45:50;98506.09;;;11.81;81.63
12963;BME280;6546;49.882;8.666;2023-04-01T12:48:51;98509.06;;;11.85;80.97
12963;BME280;6546;49.882;8.666;2023-04-01T12:51:37;98512.84;;;11.89;81.29
12963;BME280;6546;49.882;8.666;2023-04-01T12:54:41;98498.59;;;12.04;80.85
12963;BME280;6546;49.882;8.666;2023-04-01T12:57:31;98512.97;;;12.00;80.37
12963;BME280;6546;49.882;8.666;2023-04-01T13:00:24;98510.16;;;12.02;80.12
12963;BME280;6546;49.882;8.666;2023-04-01T13:03:07;98513.72;;;12.07;80.30
12963;BME280;6546;49.882;8.666;2023-04-01T13:08:50;98525.13;;;12.00;79.28
12963;BME280;6546;49.882;8.666;2023-04-01T13:11:22;98538.16;;;11.93;79.33
12963;BME280;6546;49.882;8.666;2023-04-01T13:14:21;98538.19;;;11.87;79.70
12963;BME280;6546;49.882;8.666;2023-04-01T13:16:55;98536.59;;;11.86;80.08
12963;BME280;6546;49.882;8.666;2023-04-01T13:19:28;98546.16;;;11.92;80.40
12963;BME280;6546;49.882;8.666;2023-04-01T13:22:03;98543.78;;;11.84;80.14
12963;BME280;6546;49.882;8.666;2023-04-01T13:24:41;98549.78;;;11.84;80.34
12963;BME280;6546;49.882;8.666;2023-04-01T13:27:16;98552.75;;;11.88;80.71
12963;BME280;6546;49.882;8.666;2023-04-01T13:30:02;98541.03;;;11.79;80.89
12963;BME280;6546;49.882;8.666;2023-04-01T13:32:35;98550.59;;;11.78;80.96
12963;BME280;6546;49.882;8.666;2023-04-01T13:35:16;98551.59;;;11.77;81.21
12963;BME280;6546;49.882;8.666;2023-04-01T13:37:54;98549.38;;;11.81;81.11
12963;BME280;6546;49.882;8.666;2023-04-01T13:40:33;98547.41;;;11.76;80.80
12963;BME280;6546;49.882;8.666;2023-04-01T13:43:07;98548.81;;;11.79;80.95
12963;BME280;6546;49.882;8.666;2023-04-01T13:45:54;98547.97;;;11.85;81.08
12963;BME280;6546;49.882;8.666;2023-04-01T13:48:36;98546.59;;;11.82;80.89
12963;BME280;6546;49.882;8.666;2023-04-01T13:51:18;98555.34;;;11.88;80.94
12963;BME280;6546;49.882;8.666;2023-04-01T13:54:31;98563.28;;;11.93;80.59
12963;BME280;6546;49.882;8.666;2023-04-01T13:57:25;98563.88;;;11.95;80.59
12963;BME280;6546;49.882;8.666;2023-04-01T14:00:06;98556.91;;;11.95;80.03
12963;BME280;6546;49.882;8.666;2023-04-01T14:02:59;98552.72;;;11.94;80.54
12963;BME280;6546;49.882;8.666;2023-04-01T14:05:52;98552.50;;;11.96;80.59
12963;BME280;6546;49.882;8.666;2023-04-01T14:08:33;98557.47;;;11.97;80.57
12963;BME280;6546;49.882;8.666;2023-04-01T14:11:12;98559.44;;;12.02;80.74
12963;BME280;6546;49.882;8.666;2023-04-01T14:13:46;98560.00;;;12.10;80.45
12963;BME280;6546;49.882;8.666;2023-04-01T14:16:33;98557.56;;;12.16;79.92
12963;BME280;6546;49.882;8.666;2023-04-01T14:19:18;98562.56;;;12.17;79.50
12963;BME280;6546;49.882;8.666;2023-04-01T14:21:57;98554.41;;;12.14;79.68
12963;BME280;6546;49.882;8.666;2023-04-01T14:24:42;98573.38;;;12.14;79.47
12963;BME280;6546;49.882;8.666;2023-04-01T14:27:30;98566.72;;;12.18;79.13
12963;BME280;6546;49.882;8.666;2023-04-01T14:30:29;98569.16;;;12.13;79.31
12963;BME280;6546;49.882;8.666;2023-04-01T14:33:06;98573.94;;;12.16;79.53
12963;BME280;6546;49.882;8.666;2023-04-01T14:35:49;98575.13;;;12.20;79.50
12963;BME280;6546;49.882;8.666;2023-04-01T14:38:39;98574.69;;;12.23;78.51
12963;BME280;6546;49.882;8.666;2023-04-01T14:41:19;98587.09;;;12.21;78.12
12963;BME280;6546;49.882;8.666;2023-04-01T14:43:54;98585.50;;;12.20;78.15
12963;BME280;6546;49.882;8.666;2023-04-01T14:46:38;98578.31;;;12.16;78.25
12963;BME280;6546;49.882;8.666;2023-04-01T14:49:15;98588.13;;;12.14;78.32
12963;BME280;6546;49.882;8.666;2023-04-01T14:51:48;98586.34;;;12.14;78.15
12963;BME280;6546;49.882;8.666;2023-04-01T14:54:20;98583.13;;;12.12;78.05